Sawtry, United Kingdom
Current Conditions -  °F | °C
As of 7:50 PM on Sunday 21 Dec 2014 (Local Time) from EGXT Reporting Station
Scattered Clouds Scattered Clouds  
Wind Chill: 52°   Ceiling: Unl
Heat Index: 52°   Visibility: 6mi
Dew Point: 48°   Wind: 25mph
Humidity: 88%   Direction: 240°WSW
Pressure: 30.03"   Gusts: NA
Location:  52.44°N, 0.28°W
Report Text: EGXT 211950Z AUTO 24022KT 9999 SCT015/// 11/09 Q1017
Loading
Personal Weather Stations






























Interactive Weather Map New forecast layout! Learn more

10-Day Weather Forecast

Advertisements
Track Severe Weather on mobile